sensor_id;sensor_type;location;lat;lon;timestamp;temperature;humidity
21090;DHT22;10703;51.020;6.128;2023-07-13T00:01:48;15.40;99.90
21090;DHT22;10703;51.020;6.128;2023-07-13T00:04:21;15.40;99.90
21090;DHT22;10703;51.020;6.128;2023-07-13T00:06:49;15.40;99.90
21090;DHT22;10703;51.020;6.128;2023-07-13T00:09:17;15.40;99.90
21090;DHT22;10703;51.020;6.128;2023-07-13T00:11:45;15.40;99.90
21090;DHT22;10703;51.020;6.128;2023-07-13T00:14:14;15.40;99.90
21090;DHT22;10703;51.020;6.128;2023-07-13T00:16:42;15.40;99.90
21090;DHT22;10703;51.020;6.128;2023-07-13T00:19:11;15.40;99.90
21090;DHT22;10703;51.020;6.128;2023-07-13T00:21:39;15.40;99.90
21090;DHT22;10703;51.020;6.128;2023-07-13T00:24:07;15.40;99.90
21090;DHT22;10703;51.020;6.128;2023-07-13T00:26:34;15.30;99.90
21090;DHT22;10703;51.020;6.128;2023-07-13T00:29:01;15.20;99.90
21090;DHT22;10703;51.020;6.128;2023-07-13T00:31:27;15.20;99.90
21090;DHT22;10703;51.020;6.128;2023-07-13T00:33:54;15.20;99.90
21090;DHT22;10703;51.020;6.128;2023-07-13T00:36:21;15.20;99.90
21090;DHT22;10703;51.020;6.128;2023-07-13T00:38:48;15.10;99.90
21090;DHT22;10703;51.020;6.128;2023-07-13T00:41:15;15.10;99.90
21090;DHT22;10703;51.020;6.128;2023-07-13T00:43:42;15.10;99.90
21090;DHT22;10703;51.020;6.128;2023-07-13T00:46:13;15.10;99.90
21090;DHT22;10703;51.020;6.128;2023-07-13T00:48:40;15.00;99.90
21090;DHT22;10703;51.020;6.128;2023-07-13T00:51:07;15.00;99.90
21090;DHT22;10703;51.020;6.128;2023-07-13T00:53:34;15.00;99.90
21090;DHT22;10703;51.020;6.128;2023-07-13T00:56:02;15.10;99.90
21090;DHT22;10703;51.020;6.128;2023-07-13T00:58:29;15.00;99.90
21090;DHT22;10703;51.020;6.128;2023-07-13T01:00:56;15.00;99.90
21090;DHT22;10703;51.020;6.128;2023-07-13T01:03:23;15.00;99.90
21090;DHT22;10703;51.020;6.128;2023-07-13T01:05:50;14.80;99.90
21090;DHT22;10703;51.020;6.128;2023-07-13T01:08:18;14.80;99.90
21090;DHT22;10703;51.020;6.128;2023-07-13T01:10:56;14.80;99.90
21090;DHT22;10703;51.020;6.128;2023-07-13T01:13:23;14.90;99.90
21090;DHT22;10703;51.020;6.128;2023-07-13T01:15:51;14.90;99.90
21090;DHT22;10703;51.020;6.128;2023-07-13T01:18:23;14.80;99.90
21090;DHT22;10703;51.020;6.128;2023-07-13T01:21:03;14.90;99.90
21090;DHT22;10703;51.020;6.128;2023-07-13T01:23:31;14.90;99.90
21090;DHT22;10703;51.020;6.128;2023-07-13T01:25:59;14.80;99.90
21090;DHT22;10703;51.020;6.128;2023-07-13T01:28:26;14.90;99.90
21090;DHT22;10703;51.020;6.128;2023-07-13T01:30:55;14.70;99.90
21090;DHT22;10703;51.020;6.128;2023-07-13T01:33:22;14.80;99.90
21090;DHT22;10703;51.020;6.128;2023-07-13T01:35:49;14.70;99.90
21090;DHT22;10703;51.020;6.128;2023-07-13T01:38:19;14.80;99.90
21090;DHT22;10703;51.020;6.128;2023-07-13T01:40:46;14.80;99.90
21090;DHT22;10703;51.020;6.128;2023-07-13T01:43:13;14.70;99.90
21090;DHT22;10703;51.020;6.128;2023-07-13T01:45:40;14.70;99.90
21090;DHT22;10703;51.020;6.128;2023-07-13T01:48:10;14.60;99.90
21090;DHT22;10703;51.020;6.128;2023-07-13T01:50:37;14.60;99.90
21090;DHT22;10703;51.020;6.128;2023-07-13T01:53:05;14.70;99.90
21090;DHT22;10703;51.020;6.128;2023-07-13T01:55:33;14.60;99.90
21090;DHT22;10703;51.020;6.128;2023-07-13T01:57:59;14.50;99.90
21090;DHT22;10703;51.020;6.128;2023-07-13T02:00:26;14.50;99.90
21090;DHT22;10703;51.020;6.128;2023-07-13T02:02:53;14.60;99.90
21090;DHT22;10703;51.020;6.128;2023-07-13T02:05:20;14.50;99.90
21090;DHT22;10703;51.020;6.128;2023-07-13T02:07:47;14.40;99.90
21090;DHT22;10703;51.020;6.128;2023-07-13T02:10:13;14.30;99.90
21090;DHT22;10703;51.020;6.128;2023-07-13T02:12:41;14.30;99.90
21090;DHT22;10703;51.020;6.128;2023-07-13T02:15:08;14.20;99.90
21090;DHT22;10703;51.020;6.128;2023-07-13T02:17:35;14.10;99.90
21090;DHT22;10703;51.020;6.128;2023-07-13T02:20:03;14.20;99.90
21090;DHT22;10703;51.020;6.128;2023-07-13T02:22:31;14.10;99.90
21090;DHT22;10703;51.020;6.128;2023-07-13T02:24:57;14.20;99.90
21090;DHT22;10703;51.020;6.128;2023-07-13T02:27:24;14.40;99.90
21090;DHT22;10703;51.020;6.128;2023-07-13T02:29:51;14.40;99.90
21090;DHT22;10703;51.020;6.128;2023-07-13T02:32:18;14.50;99.90
21090;DHT22;10703;51.020;6.128;2023-07-13T02:34:45;14.40;99.90
21090;DHT22;10703;51.020;6.128;2023-07-13T02:37:12;14.40;99.90
21090;DHT22;10703;51.020;6.128;2023-07-13T02:39:38;14.30;99.90
21090;DHT22;10703;51.020;6.128;2023-07-13T02:42:05;14.20;99.90
21090;DHT22;10703;51.020;6.128;2023-07-13T02:44:32;14.20;99.90
21090;DHT22;10703;51.020;6.128;2023-07-13T02:46:59;14.10;99.90
21090;DHT22;10703;51.020;6.128;2023-07-13T02:49:25;14.10;99.90
21090;DHT22;10703;51.020;6.128;2023-07-13T02:51:52;14.20;99.90
21090;DHT22;10703;51.020;6.128;2023-07-13T02:54:19;14.20;99.90
21090;DHT22;10703;51.020;6.128;2023-07-13T02:56:45;14.20;99.90
21090;DHT22;10703;51.020;6.128;2023-07-13T02:59:12;14.20;99.90
21090;DHT22;10703;51.020;6.128;2023-07-13T03:01:39;14.10;99.90
21090;DHT22;10703;51.020;6.128;2023-07-13T03:04:06;14.10;99.90
21090;DHT22;10703;51.020;6.128;2023-07-13T03:06:33;14.10;99.90
21090;DHT22;10703;51.020;6.128;2023-07-13T03:09:00;14.00;99.90
21090;DHT22;10703;51.020;6.128;2023-07-13T03:11:27;13.90;99.90
21090;DHT22;10703;51.020;6.128;2023-07-13T03:13:54;14.00;99.90
21090;DHT22;10703;51.020;6.128;2023-07-13T03:16:21;14.10;99.90
21090;DHT22;10703;51.020;6.128;2023-07-13T03:18:48;14.10;99.90
21090;DHT22;10703;51.020;6.128;2023-07-13T03:21:15;14.10;99.90
21090;DHT22;10703;51.020;6.128;2023-07-13T03:23:41;14.10;99.90
21090;DHT22;10703;51.020;6.128;2023-07-13T03:26:13;14.10;99.90
21090;DHT22;10703;51.020;6.128;2023-07-13T03:28:41;14.10;99.90
21090;DHT22;10703;51.020;6.128;2023-07-13T03:31:11;14.10;99.90
21090;DHT22;10703;51.020;6.128;2023-07-13T03:33:38;14.10;99.90
21090;DHT22;10703;51.020;6.128;2023-07-13T03:36:05;14.10;99.90
21090;DHT22;10703;51.020;6.128;2023-07-13T03:38:33;14.10;99.90
21090;DHT22;10703;51.020;6.128;2023-07-13T03:40:59;14.10;99.90
21090;DHT22;10703;51.020;6.128;2023-07-13T03:43:26;14.10;99.90
21090;DHT22;10703;51.020;6.128;2023-07-13T03:45:53;14.00;99.90
21090;DHT22;10703;51.020;6.128;2023-07-13T03:48:19;14.00;99.90
21090;DHT22;10703;51.020;6.128;2023-07-13T03:50:47;14.00;99.90
21090;DHT22;10703;51.020;6.128;2023-07-13T03:53:14;14.20;99.90
21090;DHT22;10703;51.020;6.128;2023-07-13T03:55:40;14.10;99.90
21090;DHT22;10703;51.020;6.128;2023-07-13T03:58:30;14.10;99.90
21090;DHT22;10703;51.020;6.128;2023-07-13T04:00:59;14.20;99.90
21090;DHT22;10703;51.020;6.128;2023-07-13T04:03:26;14.20;99.90
21090;DHT22;10703;51.020;6.128;2023-07-13T04:05:55;14.20;99.90
21090;DHT22;10703;51.020;6.128;2023-07-13T04:08:32;14.10;99.90
21090;DHT22;10703;51.020;6.128;2023-07-13T04:11:01;14.20;99.90
21090;DHT22;10703;51.020;6.128;2023-07-13T04:13:28;14.30;99.90
21090;DHT22;10703;51.020;6.128;2023-07-13T04:15:54;14.40;99.90
21090;DHT22;10703;51.020;6.128;2023-07-13T04:18:21;14.30;99.90
21090;DHT22;10703;51.020;6.128;2023-07-13T04:20:49;14.30;99.90
21090;DHT22;10703;51.020;6.128;2023-07-13T04:23:17;14.20;99.90
21090;DHT22;10703;51.020;6.128;2023-07-13T04:25:45;14.30;99.90
21090;DHT22;10703;51.020;6.128;2023-07-13T04:28:12;14.40;99.90
21090;DHT22;10703;51.020;6.128;2023-07-13T04:30:39;14.40;99.90
21090;DHT22;10703;51.020;6.128;2023-07-13T04:33:05;14.50;99.90
21090;DHT22;10703;51.020;6.128;2023-07-13T04:35:32;14.50;99.90
21090;DHT22;10703;51.020;6.128;2023-07-13T04:37:59;14.50;99.90
21090;DHT22;10703;51.020;6.128;2023-07-13T04:40:27;14.60;99.90
21090;DHT22;10703;51.020;6.128;2023-07-13T04:42:54;14.60;99.90
21090;DHT22;10703;51.020;6.128;2023-07-13T04:45:20;14.60;99.90
21090;DHT22;10703;51.020;6.128;2023-07-13T04:47:47;14.80;99.90
21090;DHT22;10703;51.020;6.128;2023-07-13T04:50:14;14.80;99.90
21090;DHT22;10703;51.020;6.128;2023-07-13T04:52:45;14.90;99.90
21090;DHT22;10703;51.020;6.128;2023-07-13T04:55:12;14.90;99.90
21090;DHT22;10703;51.020;6.128;2023-07-13T04:57:38;14.90;99.90
21090;DHT22;10703;51.020;6.128;2023-07-13T05:00:05;14.90;99.90
21090;DHT22;10703;51.020;6.128;2023-07-13T05:02:34;15.10;99.90
21090;DHT22;10703;51.020;6.128;2023-07-13T05:05:02;15.20;99.90
21090;DHT22;10703;51.020;6.128;2023-07-13T05:07:30;15.30;99.90
21090;DHT22;10703;51.020;6.128;2023-07-13T05:09:59;15.40;99.90
21090;DHT22;10703;51.020;6.128;2023-07-13T05:12:26;15.40;99.90
21090;DHT22;10703;51.020;6.128;2023-07-13T05:14:53;15.40;99.90
21090;DHT22;10703;51.020;6.128;2023-07-13T05:17:20;15.40;99.90
21090;DHT22;10703;51.020;6.128;2023-07-13T05:19:46;15.50;99.90
21090;DHT22;10703;51.020;6.128;2023-07-13T05:22:13;15.40;99.90
21090;DHT22;10703;51.020;6.128;2023-07-13T05:24:40;15.40;99.90
21090;DHT22;10703;51.020;6.128;2023-07-13T05:27:07;15.50;99.90
21090;DHT22;10703;51.020;6.128;2023-07-13T05:29:33;15.50;99.90
21090;DHT22;10703;51.020;6.128;2023-07-13T05:32:00;15.50;99.90
21090;DHT22;10703;51.020;6.128;2023-07-13T05:34:27;15.60;99.90
21090;DHT22;10703;51.020;6.128;2023-07-13T05:36:54;15.60;99.90
21090;DHT22;10703;51.020;6.128;2023-07-13T05:39:20;15.60;99.90
21090;DHT22;10703;51.020;6.128;2023-07-13T05:41:47;15.60;99.90
21090;DHT22;10703;51.020;6.128;2023-07-13T05:44:14;15.70;99.90
21090;DHT22;10703;51.020;6.128;2023-07-13T05:46:41;15.80;99.90
21090;DHT22;10703;51.020;6.128;2023-07-13T05:49:08;16.00;99.90
21090;DHT22;10703;51.020;6.128;2023-07-13T05:51:34;16.20;99.90
21090;DHT22;10703;51.020;6.128;2023-07-13T05:54:01;16.30;99.90
21090;DHT22;10703;51.020;6.128;2023-07-13T05:56:28;16.50;99.90
21090;DHT22;10703;51.020;6.128;2023-07-13T05:58:54;16.60;99.90
21090;DHT22;10703;51.020;6.128;2023-07-13T06:01:21;16.80;99.90
21090;DHT22;10703;51.020;6.128;2023-07-13T06:03:49;16.70;99.90
21090;DHT22;10703;51.020;6.128;2023-07-13T06:06:16;16.90;99.90
21090;DHT22;10703;51.020;6.128;2023-07-13T06:08:43;16.70;99.90
21090;DHT22;10703;51.020;6.128;2023-07-13T06:11:15;16.80;99.90
21090;DHT22;10703;51.020;6.128;2023-07-13T06:13:42;16.80;99.90
21090;DHT22;10703;51.020;6.128;2023-07-13T06:16:10;16.60;99.90
21090;DHT22;10703;51.020;6.128;2023-07-13T06:18:37;16.60;99.90
21090;DHT22;10703;51.020;6.128;2023-07-13T06:21:12;16.70;99.90
21090;DHT22;10703;51.020;6.128;2023-07-13T06:23:39;16.60;99.90
21090;DHT22;10703;51.020;6.128;2023-07-13T06:26:06;16.80;99.90
21090;DHT22;10703;51.020;6.128;2023-07-13T06:28:34;16.90;99.90
21090;DHT22;10703;51.020;6.128;2023-07-13T06:31:01;17.10;99.90
21090;DHT22;10703;51.020;6.128;2023-07-13T06:33:29;17.20;99.90
21090;DHT22;10703;51.020;6.128;2023-07-13T06:35:55;17.50;99.90
21090;DHT22;10703;51.020;6.128;2023-07-13T06:38:22;17.60;99.90
21090;DHT22;10703;51.020;6.128;2023-07-13T06:40:48;17.30;99.90
21090;DHT22;10703;51.020;6.128;2023-07-13T06:43:15;17.50;99.90
21090;DHT22;10703;51.020;6.128;2023-07-13T06:45:44;17.40;99.90
21090;DHT22;10703;51.020;6.128;2023-07-13T06:48:17;17.30;99.90
21090;DHT22;10703;51.020;6.128;2023-07-13T06:50:44;17.40;99.90
21090;DHT22;10703;51.020;6.128;2023-07-13T06:53:12;17.30;99.90
21090;DHT22;10703;51.020;6.128;2023-07-13T06:55:39;17.50;99.90
21090;DHT22;10703;51.020;6.128;2023-07-13T06:58:06;17.50;99.90
21090;DHT22;10703;51.020;6.128;2023-07-13T07:00:33;17.60;99.90
21090;DHT22;10703;51.020;6.128;2023-07-13T07:03:00;17.40;99.90
21090;DHT22;10703;51.020;6.128;2023-07-13T07:05:26;17.30;99.90
21090;DHT22;10703;51.020;6.128;2023-07-13T07:07:54;17.30;99.90
21090;DHT22;10703;51.020;6.128;2023-07-13T07:10:22;17.20;99.90
21090;DHT22;10703;51.020;6.128;2023-07-13T07:12:48;17.40;99.90
21090;DHT22;10703;51.020;6.128;2023-07-13T07:15:16;17.50;99.90
21090;DHT22;10703;51.020;6.128;2023-07-13T07:17:46;17.60;99.90
21090;DHT22;10703;51.020;6.128;2023-07-13T07:20:13;17.70;99.90
21090;DHT22;10703;51.020;6.128;2023-07-13T07:22:40;17.60;99.90
21090;DHT22;10703;51.020;6.128;2023-07-13T07:25:07;17.50;99.90
21090;DHT22;10703;51.020;6.128;2023-07-13T07:27:34;17.40;99.90
21090;DHT22;10703;51.020;6.128;2023-07-13T07:30:04;17.70;99.90
21090;DHT22;10703;51.020;6.128;2023-07-13T07:32:34;17.80;99.90
21090;DHT22;10703;51.020;6.128;2023-07-13T07:35:04;17.90;99.90
21090;DHT22;10703;51.020;6.128;2023-07-13T07:37:30;17.90;99.90
21090;DHT22;10703;51.020;6.128;2023-07-13T07:40:00;17.90;99.90
21090;DHT22;10703;51.020;6.128;2023-07-13T07:42:30;17.90;99.90
21090;DHT22;10703;51.020;6.128;2023-07-13T07:44:57;18.30;99.90
21090;DHT22;10703;51.020;6.128;2023-07-13T07:47:23;18.30;99.90
21090;DHT22;10703;51.020;6.128;2023-07-13T07:49:50;18.20;99.90
21090;DHT22;10703;51.020;6.128;2023-07-13T07:52:17;18.30;99.90
21090;DHT22;10703;51.020;6.128;2023-07-13T07:54:44;18.50;99.90
21090;DHT22;10703;51.020;6.128;2023-07-13T07:57:13;18.30;99.90
21090;DHT22;10703;51.020;6.128;2023-07-13T07:59:43;18.50;99.90
21090;DHT22;10703;51.020;6.128;2023-07-13T08:02:12;18.60;99.90
21090;DHT22;10703;51.020;6.128;2023-07-13T08:04:59;18.40;99.90
21090;DHT22;10703;51.020;6.128;2023-07-13T08:07:30;18.70;99.90
21090;DHT22;10703;51.020;6.128;2023-07-13T08:09:57;18.60;99.90
21090;DHT22;10703;51.020;6.128;2023-07-13T08:12:24;18.90;99.90
21090;DHT22;10703;51.020;6.128;2023-07-13T08:14:54;19.10;99.90
21090;DHT22;10703;51.020;6.128;2023-07-13T08:17:24;19.10;99.90
21090;DHT22;10703;51.020;6.128;2023-07-13T08:19:51;19.40;99.90
21090;DHT22;10703;51.020;6.128;2023-07-13T08:22:18;19.40;99.90
21090;DHT22;10703;51.020;6.128;2023-07-13T08:24:45;19.60;99.90
21090;DHT22;10703;51.020;6.128;2023-07-13T08:27:11;19.70;99.90
21090;DHT22;10703;51.020;6.128;2023-07-13T08:29:39;20.00;99.90
21090;DHT22;10703;51.020;6.128;2023-07-13T08:32:07;19.50;99.90
21090;DHT22;10703;51.020;6.128;2023-07-13T08:34:37;19.50;99.90
21090;DHT22;10703;51.020;6.128;2023-07-13T08:37:04;19.70;99.90
21090;DHT22;10703;51.020;6.128;2023-07-13T08:39:31;19.70;99.90
21090;DHT22;10703;51.020;6.128;2023-07-13T08:42:05;19.80;99.90
21090;DHT22;10703;51.020;6.128;2023-07-13T08:44:57;19.90;99.90
21090;DHT22;10703;51.020;6.128;2023-07-13T08:47:28;20.10;99.90
21090;DHT22;10703;51.020;6.128;2023-07-13T08:49:57;20.50;99.90
21090;DHT22;10703;51.020;6.128;2023-07-13T08:52:32;20.20;99.90
21090;DHT22;10703;51.020;6.128;2023-07-13T08:55:09;20.30;99.90
21090;DHT22;10703;51.020;6.128;2023-07-13T08:57:40;20.30;99.90
21090;DHT22;10703;51.020;6.128;2023-07-13T09:00:10;20.70;99.90
21090;DHT22;10703;51.020;6.128;2023-07-13T09:02:43;20.80;99.90
21090;DHT22;10703;51.020;6.128;2023-07-13T09:05:31;20.90;99.90
21090;DHT22;10703;51.020;6.128;2023-07-13T09:11:13;21.50;99.90
21090;DHT22;10703;51.020;6.128;2023-07-13T09:16:22;21.10;99.90
21090;DHT22;10703;51.020;6.128;2023-07-13T09:18:51;21.30;99.90
21090;DHT22;10703;51.020;6.128;2023-07-13T09:21:26;20.90;99.90
21090;DHT22;10703;51.020;6.128;2023-07-13T09:23:56;21.40;99.90
21090;DHT22;10703;51.020;6.128;2023-07-13T09:26:28;20.90;99.90
21090;DHT22;10703;51.020;6.128;2023-07-13T09:29:01;20.80;99.90
21090;DHT22;10703;51.020;6.128;2023-07-13T09:31:34;21.30;99.90
21090;DHT22;10703;51.020;6.128;2023-07-13T09:34:11;22.20;99.90
21090;DHT22;10703;51.020;6.128;2023-07-13T09:36:39;22.50;99.90
21090;DHT22;10703;51.020;6.128;2023-07-13T09:39:23;22.90;99.90
21090;DHT22;10703;51.020;6.128;2023-07-13T09:42:14;22.70;99.90
21090;DHT22;10703;51.020;6.128;2023-07-13T09:44:55;21.30;99.90
21090;DHT22;10703;51.020;6.128;2023-07-13T09:47:27;21.60;99.90
21090;DHT22;10703;51.020;6.128;2023-07-13T09:49:59;21.50;99.90
21090;DHT22;10703;51.020;6.128;2023-07-13T09:52:41;21.40;99.90
21090;DHT22;10703;51.020;6.128;2023-07-13T09:55:26;21.30;99.90
21090;DHT22;10703;51.020;6.128;2023-07-13T09:57:53;21.70;99.90
21090;DHT22;10703;51.020;6.128;2023-07-13T10:00:28;21.80;99.90
21090;DHT22;10703;51.020;6.128;2023-07-13T10:05:41;22.20;99.90
21090;DHT22;10703;51.020;6.128;2023-07-13T10:10:53;23.40;99.90
21090;DHT22;10703;51.020;6.128;2023-07-13T10:15:54;23.80;99.90
21090;DHT22;10703;51.020;6.128;2023-07-13T10:18:24;23.50;99.90
21090;DHT22;10703;51.020;6.128;2023-07-13T10:21:00;22.90;99.90
21090;DHT22;10703;51.020;6.128;2023-07-13T10:24:00;23.20;99.90
21090;DHT22;10703;51.020;6.128;2023-07-13T10:26:33;23.30;99.90
21090;DHT22;10703;51.020;6.128;2023-07-13T10:29:05;23.20;99.90
21090;DHT22;10703;51.020;6.128;2023-07-13T10:31:35;23.00;99.90
21090;DHT22;10703;51.020;6.128;2023-07-13T10:34:02;23.70;99.90
21090;DHT22;10703;51.020;6.128;2023-07-13T10:36:40;24.00;99.90
21090;DHT22;10703;51.020;6.128;2023-07-13T10:39:09;24.50;99.90
21090;DHT22;10703;51.020;6.128;2023-07-13T10:41:41;23.20;99.90
21090;DHT22;10703;51.020;6.128;2023-07-13T10:44:23;23.20;99.90
21090;DHT22;10703;51.020;6.128;2023-07-13T10:47:07;23.10;99.90
21090;DHT22;10703;51.020;6.128;2023-07-13T10:49:37;22.80;99.90
21090;DHT22;10703;51.020;6.128;2023-07-13T10:52:05;22.50;99.90
21090;DHT22;10703;51.020;6.128;2023-07-13T10:54:33;22.30;99.90
21090;DHT22;10703;51.020;6.128;2023-07-13T10:57:21;22.50;99.90
21090;DHT22;10703;51.020;6.128;2023-07-13T11:00:15;22.20;99.90
21090;DHT22;10703;51.020;6.128;2023-07-13T11:02:42;22.00;99.90
21090;DHT22;10703;51.020;6.128;2023-07-13T11:05:38;21.80;99.90
21090;DHT22;10703;51.020;6.128;2023-07-13T11:08:16;22.60;99.90
21090;DHT22;10703;51.020;6.128;2023-07-13T11:10:50;22.30;99.90
21090;DHT22;10703;51.020;6.128;2023-07-13T11:16:14;23.50;99.90
21090;DHT22;10703;51.020;6.128;2023-07-13T11:21:29;24.30;99.90
21090;DHT22;10703;51.020;6.128;2023-07-13T11:24:14;24.00;99.90
21090;DHT22;10703;51.020;6.128;2023-07-13T11:31:56;23.80;99.90
21090;DHT22;10703;51.020;6.128;2023-07-13T11:34:30;24.30;99.90
21090;DHT22;10703;51.020;6.128;2023-07-13T11:36:59;24.90;99.90
21090;DHT22;10703;51.020;6.128;2023-07-13T11:39:36;24.00;99.90
21090;DHT22;10703;51.020;6.128;2023-07-13T11:42:16;24.90;99.90
21090;DHT22;10703;51.020;6.128;2023-07-13T11:44:48;24.80;98.00
21090;DHT22;10703;51.020;6.128;2023-07-13T11:47:33;24.80;98.10
21090;DHT22;10703;51.020;6.128;2023-07-13T11:50:00;25.70;98.20
21090;DHT22;10703;51.020;6.128;2023-07-13T11:52:33;25.10;97.70
21090;DHT22;10703;51.020;6.128;2023-07-13T11:55:02;25.60;98.60
21090;DHT22;10703;51.020;6.128;2023-07-13T11:57:38;25.90;97.10
21090;DHT22;10703;51.020;6.128;2023-07-13T12:00:14;25.80;96.50
21090;DHT22;10703;51.020;6.128;2023-07-13T12:02:47;25.20;96.20
21090;DHT22;10703;51.020;6.128;2023-07-13T12:05:17;25.40;96.20
21090;DHT22;10703;51.020;6.128;2023-07-13T12:07:44;24.90;95.20
21090;DHT22;10703;51.020;6.128;2023-07-13T12:10:20;24.60;96.40
21090;DHT22;10703;51.020;6.128;2023-07-13T12:12:57;24.60;97.60
21090;DHT22;10703;51.020;6.128;2023-07-13T12:15:32;24.30;96.90
21090;DHT22;10703;51.020;6.128;2023-07-13T12:18:00;24.50;97.40
21090;DHT22;10703;51.020;6.128;2023-07-13T12:20:33;25.30;95.80
21090;DHT22;10703;51.020;6.128;2023-07-13T12:23:05;25.50;95.50
21090;DHT22;10703;51.020;6.128;2023-07-13T12:25:35;25.80;95.50
21090;DHT22;10703;51.020;6.128;2023-07-13T12:28:28;25.60;96.30
21090;DHT22;10703;51.020;6.128;2023-07-13T12:31:03;25.30;95.10
21090;DHT22;10703;51.020;6.128;2023-07-13T12:33:31;25.60;95.40
21090;DHT22;10703;51.020;6.128;2023-07-13T12:36:03;25.30;95.40
21090;DHT22;10703;51.020;6.128;2023-07-13T12:38:32;24.90;96.50
21090;DHT22;10703;51.020;6.128;2023-07-13T12:41:01;25.20;95.10
21090;DHT22;10703;51.020;6.128;2023-07-13T12:43:34;25.00;94.50
21090;DHT22;10703;51.020;6.128;2023-07-13T12:46:24;25.60;94.50
21090;DHT22;10703;51.020;6.128;2023-07-13T12:48:52;26.30;94.00
21090;DHT22;10703;51.020;6.128;2023-07-13T12:51:34;25.60;94.20
21090;DHT22;10703;51.020;6.128;2023-07-13T12:54:15;25.50;94.20
21090;DHT22;10703;51.020;6.128;2023-07-13T12:56:42;24.90;94.70
21090;DHT22;10703;51.020;6.128;2023-07-13T12:59:20;25.70;94.60
21090;DHT22;10703;51.020;6.128;2023-07-13T13:01:48;26.30;93.80
21090;DHT22;10703;51.020;6.128;2023-07-13T13:04:16;26.00;93.50
21090;DHT22;10703;51.020;6.128;2023-07-13T13:06:48;26.10;93.20
21090;DHT22;10703;51.020;6.128;2023-07-13T13:09:17;26.80;93.50
21090;DHT22;10703;51.020;6.128;2023-07-13T13:11:45;26.30;92.00
21090;DHT22;10703;51.020;6.128;2023-07-13T13:14:11;26.00;93.70
21090;DHT22;10703;51.020;6.128;2023-07-13T13:16:49;26.00;93.90
21090;DHT22;10703;51.020;6.128;2023-07-13T13:19:22;25.70;93.30
21090;DHT22;10703;51.020;6.128;2023-07-13T13:21:49;26.60;92.50
21090;DHT22;10703;51.020;6.128;2023-07-13T13:24:21;26.70;92.30
21090;DHT22;10703;51.020;6.128;2023-07-13T13:26:50;26.10;92.80
21090;DHT22;10703;51.020;6.128;2023-07-13T13:29:20;25.50;93.20
21090;DHT22;10703;51.020;6.128;2023-07-13T13:31:47;25.70;93.30
21090;DHT22;10703;51.020;6.128;2023-07-13T13:34:17;26.40;92.80
21090;DHT22;10703;51.020;6.128;2023-07-13T13:36:44;25.70;92.80
21090;DHT22;10703;51.020;6.128;2023-07-13T13:39:27;25.80;93.10
21090;DHT22;10703;51.020;6.128;2023-07-13T13:41:54;25.50;94.10
21090;DHT22;10703;51.020;6.128;2023-07-13T13:44:22;25.30;93.50
21090;DHT22;10703;51.020;6.128;2023-07-13T13:46:52;25.70;93.50
21090;DHT22;10703;51.020;6.128;2023-07-13T13:49:23;25.90;93.00
21090;DHT22;10703;51.020;6.128;2023-07-13T13:51:51;26.40;92.30
21090;DHT22;10703;51.020;6.128;2023-07-13T13:54:19;25.80;92.20
21090;DHT22;10703;51.020;6.128;2023-07-13T13:56:49;25.80;92.50
21090;DHT22;10703;51.020;6.128;2023-07-13T13:59:16;25.80;91.70
21090;DHT22;10703;51.020;6.128;2023-07-13T14:01:44;25.30;91.50
21090;DHT22;10703;51.020;6.128;2023-07-13T14:04:17;24.90;92.30
21090;DHT22;10703;51.020;6.128;2023-07-13T14:06:44;24.80;92.60
21090;DHT22;10703;51.020;6.128;2023-07-13T14:09:14;24.30;92.70
21090;DHT22;10703;51.020;6.128;2023-07-13T14:11:42;23.90;93.10
21090;DHT22;10703;51.020;6.128;2023-07-13T14:14:22;23.80;93.40
21090;DHT22;10703;51.020;6.128;2023-07-13T14:16:50;23.50;93.70
21090;DHT22;10703;51.020;6.128;2023-07-13T14:19:21;23.20;94.30
21090;DHT22;10703;51.020;6.128;2023-07-13T14:21:48;22.90;94.30
21090;DHT22;10703;51.020;6.128;2023-07-13T14:24:16;22.80;95.00
21090;DHT22;10703;51.020;6.128;2023-07-13T14:26:42;22.90;95.20
21090;DHT22;10703;51.020;6.128;2023-07-13T14:29:15;23.10;94.50
21090;DHT22;10703;51.020;6.128;2023-07-13T14:31:44;23.10;94.60
21090;DHT22;10703;51.020;6.128;2023-07-13T14:34:12;22.60;98.40
21090;DHT22;10703;51.020;6.128;2023-07-13T14:36:44;22.20;99.90
21090;DHT22;10703;51.020;6.128;2023-07-13T14:39:15;21.70;99.90
21090;DHT22;10703;51.020;6.128;2023-07-13T14:41:43;21.70;99.90
21090;DHT22;10703;51.020;6.128;2023-07-13T14:44:15;21.20;99.90
21090;DHT22;10703;51.020;6.128;2023-07-13T14:46:44;21.20;99.90
21090;DHT22;10703;51.020;6.128;2023-07-13T14:49:29;21.00;99.90
21090;DHT22;10703;51.020;6.128;2023-07-13T14:51:58;20.80;99.90
21090;DHT22;10703;51.020;6.128;2023-07-13T14:54:25;20.60;99.90
21090;DHT22;10703;51.020;6.128;2023-07-13T14:56:52;20.60;99.90
21090;DHT22;10703;51.020;6.128;2023-07-13T14:59:19;20.40;99.90
21090;DHT22;10703;51.020;6.128;2023-07-13T15:01:48;20.20;99.90
21090;DHT22;10703;51.020;6.128;2023-07-13T15:04:15;20.10;99.90
21090;DHT22;10703;51.020;6.128;2023-07-13T15:06:58;19.90;99.90
21090;DHT22;10703;51.020;6.128;2023-07-13T15:09:26;19.80;99.90
21090;DHT22;10703;51.020;6.128;2023-07-13T15:11:56;19.80;99.90
21090;DHT22;10703;51.020;6.128;2023-07-13T15:14:23;19.80;99.90
21090;DHT22;10703;51.020;6.128;2023-07-13T15:16:53;19.70;99.90
21090;DHT22;10703;51.020;6.128;2023-07-13T15:19:21;19.70;99.90
21090;DHT22;10703;51.020;6.128;2023-07-13T15:21:48;19.60;99.90
21090;DHT22;10703;51.020;6.128;2023-07-13T15:24:15;19.60;99.90
21090;DHT22;10703;51.020;6.128;2023-07-13T15:26:42;19.40;99.90
21090;DHT22;10703;51.020;6.128;2023-07-13T15:29:16;19.40;99.90
21090;DHT22;10703;51.020;6.128;2023-07-13T15:31:43;19.40;99.90
21090;DHT22;10703;51.020;6.128;2023-07-13T15:34:12;19.30;99.90
21090;DHT22;10703;51.020;6.128;2023-07-13T15:36:39;19.40;99.90
21090;DHT22;10703;51.020;6.128;2023-07-13T15:39:06;19.40;99.90
21090;DHT22;10703;51.020;6.128;2023-07-13T15:41:33;19.50;99.90
21090;DHT22;10703;51.020;6.128;2023-07-13T15:44:07;19.60;99.90
21090;DHT22;10703;51.020;6.128;2023-07-13T15:46:45;19.70;99.90
21090;DHT22;10703;51.020;6.128;2023-07-13T15:49:12;19.80;99.90
21090;DHT22;10703;51.020;6.128;2023-07-13T15:51:39;19.90;99.90
21090;DHT22;10703;51.020;6.128;2023-07-13T15:54:08;20.00;99.90
21090;DHT22;10703;51.020;6.128;2023-07-13T15:56:38;20.10;99.90
21090;DHT22;10703;51.020;6.128;2023-07-13T15:59:10;20.50;99.90
21090;DHT22;10703;51.020;6.128;2023-07-13T16:01:39;20.60;99.90
21090;DHT22;10703;51.020;6.128;2023-07-13T16:04:08;20.70;99.90
21090;DHT22;10703;51.020;6.128;2023-07-13T16:06:37;21.10;99.90
21090;DHT22;10703;51.020;6.128;2023-07-13T16:09:19;21.40;99.90
21090;DHT22;10703;51.020;6.128;2023-07-13T16:11:49;21.80;99.90